Time;durP1;ratioP1;P1;durP2;ratioP2;P2;SDS_P1;SDS_P2;PMS_P1;PMS_P2;Temp;Humidity;BMP_temperature;BMP_pressure;BME280_temperature;BME280_humidity;BME280_pressure;Samples;Min_cycle;Max_cycle;Signal;HPM_P1;HPM_P2
2022/10/13 00:00:04;;;;;;;27.88;12.30;;;;;;;;;;5070267;28;20094;-65
2022/10/13 00:02:30;;;;;;;25.15;11.95;;;;;;;;;;5069623;28;20421;-65
2022/10/13 00:04:56;;;;;;;23.42;12.35;;;;;;;;;;5070807;28;20036;-65
2022/10/13 00:07:22;;;;;;;24.58;11.73;;;;;;;;;;5069090;28;20048;-65
2022/10/13 00:09:48;;;;;;;24.85;11.88;;;;;;;;;;5070680;28;20078;-65
2022/10/13 00:12:14;;;;;;;25.88;12.07;;;;;;;;;;5069126;28;20056;-65
2022/10/13 00:14:40;;;;;;;28.73;12.05;;;;;;;;;;5069997;28;20485;-65
2022/10/13 00:17:06;;;;;;;21.67;11.25;;;;;;;;;;5069322;28;20082;-65
2022/10/13 00:19:32;;;;;;;21.77;12.05;;;;;;;;;;5069092;28;20044;-65
2022/10/13 00:21:58;;;;;;;24.65;12.15;;;;;;;;;;5070350;28;20766;-65
2022/10/13 00:24:25;;;;;;;25.05;12.00;;;;;;;;;;5070691;28;20051;-65
2022/10/13 00:26:51;;;;;;;24.85;12.73;;;;;;;;;;5070309;28;20102;-65
2022/10/13 00:29:17;;;;;;;22.90;13.07;;;;;;;;;;5070106;28;20044;-65
2022/10/13 00:31:43;;;;;;;25.27;12.52;;;;;;;;;;5070302;28;20048;-65
2022/10/13 00:34:09;;;;;;;28.73;12.55;;;;;;;;;;5070553;28;20037;-65
2022/10/13 00:36:35;;;;;;;19.70;11.05;;;;;;;;;;5070398;28;20046;-65
2022/10/13 00:39:01;;;;;;;22.85;12.00;;;;;;;;;;5070582;28;20123;-65
2022/10/13 00:41:27;;;;;;;21.92;11.65;;;;;;;;;;5070713;28;20090;-65
2022/10/13 00:43:57;;;;;;;22.65;11.80;;;;;;;;;;5070021;28;20041;-65
2022/10/13 00:46:24;;;;;;;25.73;12.50;;;;;;;;;;5070423;28;20036;-65
2022/10/13 00:48:50;;;;;;;25.60;12.07;;;;;;;;;;5070376;28;20037;-65
2022/10/13 00:51:18;;;;;;;24.65;11.95;;;;;;;;;;5070010;28;20039;-65
2022/10/13 00:53:46;;;;;;;27.15;12.35;;;;;;;;;;5070449;28;20086;-65
2022/10/13 00:56:13;;;;;;;23.55;11.90;;;;;;;;;;5070198;28;20406;-65
2022/10/13 00:58:39;;;;;;;24.25;12.38;;;;;;;;;;5069807;28;20064;-65
2022/10/13 01:01:06;;;;;;;26.25;11.93;;;;;;;;;;5070072;28;20044;-65
2022/10/13 01:03:32;;;;;;;25.25;13.07;;;;;;;;;;5070369;28;20797;-65
2022/10/13 01:06:00;;;;;;;27.80;12.48;;;;;;;;;;5069780;28;20044;-65
2022/10/13 01:08:27;;;;;;;28.63;12.70;;;;;;;;;;5070207;28;20085;-65
2022/10/13 01:11:12;;;;;;;25.15;12.30;;;;;;;;;;5071816;28;20072;-65
2022/10/13 01:13:38;;;;;;;25.90;12.52;;;;;;;;;;5073407;28;20059;-65
2022/10/13 01:16:07;;;;;;;23.90;12.20;;;;;;;;;;5072259;28;20438;-65
2022/10/13 01:18:39;;;;;;;30.20;13.90;;;;;;;;;;5073835;28;20037;-65
2022/10/13 01:21:05;;;;;;;;;;;;;;;;;;5073838;28;20430;-65
2022/10/13 01:23:31;;;;;;;28.10;12.10;;;;;;;;;;5073683;28;20420;-66
2022/10/13 01:26:17;;;;;;;27.27;13.18;;;;;;;;;;5073580;28;20036;-65
2022/10/13 01:29:01;;;;;;;27.13;13.35;;;;;;;;;;5073093;28;20080;-65
2022/10/13 01:31:32;;;;;;;25.27;12.80;;;;;;;;;;5073645;28;20166;-65
2022/10/13 01:34:03;;;;;;;25.17;13.02;;;;;;;;;;5073586;28;20046;-65
2022/10/13 01:36:36;;;;;;;21.00;12.27;;;;;;;;;;5073198;28;20132;-65
2022/10/13 01:39:08;;;;;;;23.98;11.73;;;;;;;;;;5073266;28;20736;-65
2022/10/13 01:41:39;;;;;;;25.77;12.95;;;;;;;;;;5073233;28;20115;-65
2022/10/13 01:44:15;;;;;;;25.77;12.80;;;;;;;;;;5071966;28;20068;-65
2022/10/13 01:46:42;;;;;;;22.23;12.88;;;;;;;;;;5071867;28;20126;-65
2022/10/13 01:49:12;;;;;;;19.25;12.10;;;;;;;;;;5073268;28;20382;-65
2022/10/13 01:51:39;;;;;;;26.17;12.57;;;;;;;;;;5073031;28;20045;-65
2022/10/13 01:54:05;;;;;;;24.17;12.38;;;;;;;;;;5072992;28;20119;-65
2022/10/13 01:56:31;;;;;;;22.70;12.32;;;;;;;;;;5071589;28;20052;-65
2022/10/13 01:58:58;;;;;;;25.13;12.43;;;;;;;;;;5072741;28;20044;-65
2022/10/13 02:01:24;;;;;;;23.88;13.07;;;;;;;;;;5073109;28;20079;-66
2022/10/13 02:03:50;;;;;;;23.60;12.70;;;;;;;;;;5073108;28;20043;-65
2022/10/13 02:06:21;;;;;;;20.00;11.98;;;;;;;;;;5072501;28;20382;-65
2022/10/13 02:09:08;;;;;;;22.98;11.38;;;;;;;;;;5072981;28;20047;-65
2022/10/13 02:11:34;;;;;;;20.77;12.20;;;;;;;;;;5072631;28;20394;-65
2022/10/13 02:14:00;;;;;;;28.48;12.65;;;;;;;;;;5072115;28;20109;-65
2022/10/13 02:16:31;;;;;;;22.55;12.60;;;;;;;;;;5072852;28;20086;-65
2022/10/13 02:18:57;;;;;;;21.38;12.07;;;;;;;;;;5072727;28;20105;-65
2022/10/13 02:21:24;;;;;;;19.73;12.07;;;;;;;;;;5071872;28;20071;-65
2022/10/13 02:23:50;;;;;;;27.88;13.18;;;;;;;;;;5072791;28;20032;-65
2022/10/13 02:26:17;;;;;;;25.42;13.20;;;;;;;;;;5072505;28;20595;-65
2022/10/13 02:28:43;;;;;;;26.15;12.43;;;;;;;;;;5072143;28;20080;-65
2022/10/13 02:31:10;;;;;;;22.92;12.20;;;;;;;;;;5072637;28;20052;-65
2022/10/13 02:33:36;;;;;;;27.70;13.55;;;;;;;;;;5072413;28;20409;-65
2022/10/13 02:36:02;;;;;;;26.00;13.13;;;;;;;;;;5071900;28;20051;-65
2022/10/13 02:38:28;;;;;;;23.40;12.55;;;;;;;;;;5072388;28;20036;-65
2022/10/13 02:40:54;;;;;;;26.00;13.68;;;;;;;;;;5072357;28;20036;-65
2022/10/13 02:43:20;;;;;;;27.48;14.00;;;;;;;;;;5072016;28;20041;-65
2022/10/13 02:45:46;;;;;;;22.00;12.75;;;;;;;;;;5072440;28;20040;-65
2022/10/13 02:48:12;;;;;;;23.80;13.05;;;;;;;;;;5070908;28;20049;-65
2022/10/13 02:50:38;;;;;;;23.17;12.95;;;;;;;;;;5071480;28;20576;-65
2022/10/13 02:53:04;;;;;;;26.40;14.50;;;;;;;;;;5071935;28;20485;-65
2022/10/13 02:55:30;;;;;;;28.35;14.02;;;;;;;;;;5072016;28;20084;-65
2022/10/13 02:57:56;;;;;;;28.67;13.90;;;;;;;;;;5071719;28;20040;-65
2022/10/13 03:00:23;;;;;;;26.42;13.88;;;;;;;;;;5071760;28;20535;-65
2022/10/13 03:02:49;;;;;;;26.05;13.85;;;;;;;;;;5071794;28;20473;-65
2022/10/13 03:05:16;;;;;;;25.67;13.25;;;;;;;;;;5071165;28;20052;-65
2022/10/13 03:07:41;;;;;;;24.80;13.65;;;;;;;;;;5071843;28;20399;-65
2022/10/13 03:10:08;;;;;;;27.63;14.13;;;;;;;;;;5071324;28;20048;-65
2022/10/13 03:12:34;;;;;;;27.25;13.88;;;;;;;;;;5071293;28;20060;-65
2022/10/13 03:15:00;;;;;;;26.33;14.30;;;;;;;;;;5071590;28;20031;-65
2022/10/13 03:17:26;;;;;;;25.73;13.57;;;;;;;;;;5070332;28;20075;-65
2022/10/13 03:19:52;;;;;;;26.65;13.85;;;;;;;;;;5069754;28;20692;-65
2022/10/13 03:22:18;;;;;;;24.88;14.27;;;;;;;;;;5071255;28;20082;-65
2022/10/13 03:24:44;;;;;;;27.58;14.73;;;;;;;;;;5069969;28;20131;-65
2022/10/13 03:27:10;;;;;;;28.83;15.18;;;;;;;;;;5069717;28;20437;-65
2022/10/13 03:29:36;;;;;;;33.13;15.77;;;;;;;;;;5071414;28;20040;-65
2022/10/13 03:32:02;;;;;;;25.73;14.75;;;;;;;;;;5070749;28;20044;-65
2022/10/13 03:34:29;;;;;;;35.33;15.77;;;;;;;;;;5070182;28;20039;-65
2022/10/13 03:36:55;;;;;;;29.48;15.68;;;;;;;;;;5071367;28;20036;-65
2022/10/13 03:39:21;;;;;;;33.63;15.48;;;;;;;;;;5071120;28;20043;-65
2022/10/13 03:41:47;;;;;;;30.38;15.65;;;;;;;;;;5070868;28;20109;-65
2022/10/13 03:44:13;;;;;;;32.72;16.08;;;;;;;;;;5071003;28;20044;-65
2022/10/13 03:46:39;;;;;;;30.00;15.85;;;;;;;;;;5071147;28;20045;-65
2022/10/13 03:49:05;;;;;;;33.75;15.68;;;;;;;;;;5070712;28;20344;-65
2022/10/13 03:51:31;;;;;;;28.45;16.73;;;;;;;;;;5069690;28;20048;-65
2022/10/13 03:53:58;;;;;;;27.55;15.70;;;;;;;;;;5071163;28;20177;-65
2022/10/13 03:56:25;;;;;;;27.25;16.15;;;;;;;;;;5070606;28;20102;-65
2022/10/13 03:58:55;;;;;;;30.65;16.30;;;;;;;;;;5070825;28;20052;-65
2022/10/13 04:01:22;;;;;;;29.15;15.98;;;;;;;;;;5070792;28;20534;-65
2022/10/13 04:03:49;;;;;;;31.88;16.42;;;;;;;;;;5070580;28;20074;-65
2022/10/13 04:06:15;;;;;;;30.73;17.73;;;;;;;;;;5070771;28;20443;-65
2022/10/13 04:08:41;;;;;;;32.28;16.42;;;;;;;;;;5070688;28;20080;-65
2022/10/13 04:11:08;;;;;;;30.00;16.08;;;;;;;;;;5070270;28;20410;-65
2022/10/13 04:13:34;;;;;;;30.80;16.35;;;;;;;;;;5069140;28;20048;-65
2022/10/13 04:16:04;;;;;;;27.67;16.27;;;;;;;;;;5070511;28;20414;-65
2022/10/13 04:18:30;;;;;;;30.35;17.02;;;;;;;;;;5068746;28;20094;-66
2022/10/13 04:20:56;;;;;;;34.80;17.55;;;;;;;;;;5069433;28;20597;-65
2022/10/13 04:23:22;;;;;;;37.70;18.00;;;;;;;;;;5070740;28;20049;-65
2022/10/13 04:25:49;;;;;;;30.60;16.63;;;;;;;;;;5070187;28;20483;-65
2022/10/13 04:28:15;;;;;;;27.50;17.08;;;;;;;;;;5070462;28;20371;-65
2022/10/13 04:30:41;;;;;;;29.65;17.90;;;;;;;;;;5070450;28;20050;-65
2022/10/13 04:33:07;;;;;;;32.53;17.10;;;;;;;;;;5068497;28;20053;-65
2022/10/13 04:35:33;;;;;;;32.05;18.25;;;;;;;;;;5070092;28;20037;-65
2022/10/13 04:37:59;;;;;;;36.53;18.52;;;;;;;;;;5070476;28;20068;-65
2022/10/13 04:40:26;;;;;;;34.00;18.75;;;;;;;;;;5070040;28;20044;-65
2022/10/13 04:42:52;;;;;;;33.47;18.60;;;;;;;;;;5070345;28;20086;-65
2022/10/13 04:45:18;;;;;;;30.77;18.48;;;;;;;;;;5073146;28;20075;-65
2022/10/13 04:47:44;;;;;;;30.02;18.25;;;;;;;;;;5074011;28;20127;-65
2022/10/13 04:50:10;;;;;;;36.08;19.27;;;;;;;;;;5072945;28;20474;-65
2022/10/13 04:52:36;;;;;;;32.30;18.25;;;;;;;;;;5074194;28;20059;-66
2022/10/13 04:55:02;;;;;;;38.35;19.35;;;;;;;;;;5073808;28;20075;-66
2022/10/13 04:57:29;;;;;;;32.65;18.23;;;;;;;;;;5074111;28;20052;-66
2022/10/13 04:59:55;;;;;;;39.70;19.95;;;;;;;;;;5074098;28;20101;-66
2022/10/13 05:02:21;;;;;;;37.85;19.73;;;;;;;;;;5073738;28;20047;-66
2022/10/13 05:04:47;;;;;;;37.45;18.73;;;;;;;;;;5070110;28;20036;-65
2022/10/13 05:07:13;;;;;;;31.70;18.40;;;;;;;;;;5072737;28;20487;-65
2022/10/13 05:09:39;;;;;;;35.10;20.13;;;;;;;;;;5072137;28;20045;-65
2022/10/13 05:12:05;;;;;;;32.88;20.02;;;;;;;;;;5073032;28;20406;-65
2022/10/13 05:14:32;;;;;;;34.00;18.85;;;;;;;;;;5073346;28;20050;-65
2022/10/13 05:16:58;;;;;;;35.95;19.55;;;;;;;;;;5073846;28;20079;-65
2022/10/13 05:19:24;;;;;;;37.67;20.75;;;;;;;;;;5073524;28;20036;-65
2022/10/13 05:21:50;;;;;;;32.72;17.90;;;;;;;;;;5073654;28;20127;-65
2022/10/13 05:24:16;;;;;;;34.25;18.38;;;;;;;;;;5072174;28;20052;-65
2022/10/13 05:26:42;;;;;;;36.63;20.05;;;;;;;;;;5073149;28;20072;-65
2022/10/13 05:29:08;;;;;;;36.33;19.50;;;;;;;;;;5073047;28;20079;-65
2022/10/13 05:31:35;;;;;;;37.88;20.48;;;;;;;;;;5073331;28;20040;-65
2022/10/13 05:34:01;;;;;;;35.70;20.83;;;;;;;;;;5072814;28;20547;-65
2022/10/13 05:36:31;;;;;;;42.03;20.27;;;;;;;;;;5073297;28;20047;-65
2022/10/13 05:38:59;;;;;;;37.33;20.27;;;;;;;;;;5072098;28;20098;-65
2022/10/13 05:41:25;;;;;;;32.10;18.42;;;;;;;;;;5071332;28;20044;-65
2022/10/13 05:43:57;;;;;;;37.78;19.85;;;;;;;;;;5073181;28;20491;-65
2022/10/13 05:46:23;;;;;;;39.22;20.13;;;;;;;;;;5072939;28;20402;-65
2022/10/13 05:48:50;;;;;;;36.30;19.10;;;;;;;;;;5072599;28;20455;-65
2022/10/13 05:51:17;;;;;;;33.72;18.75;;;;;;;;;;5073229;28;20119;-65
2022/10/13 05:53:46;;;;;;;45.13;20.58;;;;;;;;;;5073018;28;20127;-65
2022/10/13 05:56:14;;;;;;;34.40;19.38;;;;;;;;;;5070079;28;20044;-65
2022/10/13 05:58:44;;;;;;;34.20;18.73;;;;;;;;;;5072835;28;20106;-65
2022/10/13 06:01:12;;;;;;;33.85;19.15;;;;;;;;;;5071590;28;20049;-65
2022/10/13 06:03:39;;;;;;;41.33;20.55;;;;;;;;;;5072824;28;20043;-65
2022/10/13 06:06:05;;;;;;;35.92;19.42;;;;;;;;;;5071117;28;20049;-66
2022/10/13 06:08:31;;;;;;;32.85;18.00;;;;;;;;;;5071015;28;20049;-65
2022/10/13 06:10:57;;;;;;;39.63;21.38;;;;;;;;;;5070700;28;20037;-65
2022/10/13 06:13:23;;;;;;;36.80;19.40;;;;;;;;;;5072028;28;20032;-64
2022/10/13 06:15:49;;;;;;;32.85;18.70;;;;;;;;;;5072673;28;20798;-63
2022/10/13 06:18:15;;;;;;;36.03;18.98;;;;;;;;;;5071463;28;20040;-64
2022/10/13 06:20:42;;;;;;;37.13;20.23;;;;;;;;;;5072045;28;20051;-64
2022/10/13 06:23:08;;;;;;;36.00;19.95;;;;;;;;;;5072058;28;20078;-64
2022/10/13 06:25:35;;;;;;;37.13;19.65;;;;;;;;;;5071582;28;20043;-65
2022/10/13 06:28:01;;;;;;;32.55;19.55;;;;;;;;;;5072000;28;20203;-64
2022/10/13 06:30:27;;;;;;;40.15;20.02;;;;;;;;;;5071983;28;20041;-64
2022/10/13 06:32:54;;;;;;;31.60;18.63;;;;;;;;;;5070936;28;20043;-65
2022/10/13 06:35:20;;;;;;;35.65;19.58;;;;;;;;;;5061678;28;20371;-63
2022/10/13 06:37:47;;;;;;;32.03;18.20;;;;;;;;;;5069625;28;20037;-66
2022/10/13 06:40:14;;;;;;;32.80;17.95;;;;;;;;;;5069023;28;20048;-63
2022/10/13 06:42:40;;;;;;;31.75;17.48;;;;;;;;;;5071067;28;20035;-66
2022/10/13 06:45:06;;;;;;;37.25;19.77;;;;;;;;;;5070239;28;20364;-65
2022/10/13 06:47:32;;;;;;;35.20;19.23;;;;;;;;;;5069914;28;20052;-65
2022/10/13 06:49:58;;;;;;;38.40;19.88;;;;;;;;;;5069924;28;20554;-64
2022/10/13 06:52:25;;;;;;;40.20;20.70;;;;;;;;;;5070534;28;20083;-64
2022/10/13 06:54:51;;;;;;;38.10;20.48;;;;;;;;;;5068153;28;20939;-64
2022/10/13 06:57:17;;;;;;;34.63;19.70;;;;;;;;;;5070840;28;20089;-65
2022/10/13 06:59:43;;;;;;;33.28;18.67;;;;;;;;;;5070549;28;20055;-64
2022/10/13 07:02:09;;;;;;;37.85;20.70;;;;;;;;;;5069961;28;20051;-64
2022/10/13 07:04:35;;;;;;;34.28;19.48;;;;;;;;;;5070296;28;20037;-63
2022/10/13 07:07:01;;;;;;;39.90;20.63;;;;;;;;;;5070445;28;20040;-63
2022/10/13 07:09:27;;;;;;;36.55;20.80;;;;;;;;;;5070171;28;20044;-63
2022/10/13 07:11:53;;;;;;;39.47;19.92;;;;;;;;;;5061184;28;20078;-64
2022/10/13 07:14:19;;;;;;;39.50;19.88;;;;;;;;;;5068999;28;20052;-63
2022/10/13 07:16:47;;;;;;;34.85;19.15;;;;;;;;;;5069682;28;20376;-65
2022/10/13 07:19:13;;;;;;;36.03;19.75;;;;;;;;;;5068714;28;20063;-64
2022/10/13 07:21:39;;;;;;;39.55;19.75;;;;;;;;;;5070296;28;20036;-64
2022/10/13 07:24:06;;;;;;;45.38;21.23;;;;;;;;;;5069988;28;20032;-65
2022/10/13 07:26:32;;;;;;;38.70;21.00;;;;;;;;;;5069562;28;20518;-62
2022/10/13 07:28:59;;;;;;;29.63;18.77;;;;;;;;;;5067213;28;20835;-65
2022/10/13 07:31:25;;;;;;;35.58;20.08;;;;;;;;;;5066593;28;20040;-64
2022/10/13 07:33:52;;;;;;;39.40;20.52;;;;;;;;;;5065392;28;20498;-64
2022/10/13 07:36:18;;;;;;;40.90;20.83;;;;;;;;;;5049274;28;20447;-65
2022/10/13 07:38:44;;;;;;;37.40;20.75;;;;;;;;;;5068719;28;20071;-64
2022/10/13 07:41:11;;;;;;;41.10;21.33;;;;;;;;;;5068598;28;20039;-65
2022/10/13 07:43:38;;;;;;;37.00;20.98;;;;;;;;;;5067568;28;20080;-65
2022/10/13 07:46:05;;;;;;;42.17;21.42;;;;;;;;;;5073400;28;20042;-66
2022/10/13 07:48:31;;;;;;;36.65;22.35;;;;;;;;;;5061551;28;20049;-66
2022/10/13 07:50:57;;;;;;;35.90;21.05;;;;;;;;;;5068193;28;20044;-66
2022/10/13 07:53:23;;;;;;;37.45;21.40;;;;;;;;;;5062039;28;20732;-64
2022/10/13 07:55:49;;;;;;;42.38;23.05;;;;;;;;;;5067132;28;20037;-65
2022/10/13 07:58:15;;;;;;;41.13;21.35;;;;;;;;;;5068641;28;20040;-64
2022/10/13 08:00:42;;;;;;;43.70;21.98;;;;;;;;;;5067481;28;20071;-66
2022/10/13 08:03:08;;;;;;;40.42;20.95;;;;;;;;;;5067092;28;20621;-66
2022/10/13 08:05:36;;;;;;;42.95;22.67;;;;;;;;;;5069209;28;20048;-63
2022/10/13 08:08:02;;;;;;;42.28;22.88;;;;;;;;;;5081083;28;20044;-65
2022/10/13 08:10:29;;;;;;;42.47;22.33;;;;;;;;;;5068263;28;20056;-64
2022/10/13 08:12:55;;;;;;;38.33;22.95;;;;;;;;;;5067127;28;20096;-64
2022/10/13 08:15:21;;;;;;;40.50;22.20;;;;;;;;;;5068033;28;20044;-64
2022/10/13 08:17:47;;;;;;;43.42;22.52;;;;;;;;;;5069573;28;20542;-63
2022/10/13 08:20:13;;;;;;;41.00;22.48;;;;;;;;;;5068644;28;20124;-64
2022/10/13 08:22:39;;;;;;;38.58;21.92;;;;;;;;;;5068377;28;20173;-65
2022/10/13 08:25:06;;;;;;;43.50;21.95;;;;;;;;;;5068467;28;20613;-63
2022/10/13 08:27:32;;;;;;;45.03;22.17;;;;;;;;;;5068873;28;20044;-63
2022/10/13 08:29:58;;;;;;;44.35;22.48;;;;;;;;;;5068559;28;20179;-63
2022/10/13 08:32:24;;;;;;;41.78;22.58;;;;;;;;;;5067480;28;20067;-64
2022/10/13 08:34:50;;;;;;;39.63;22.42;;;;;;;;;;5069239;28;20112;-64
2022/10/13 08:37:17;;;;;;;38.78;22.50;;;;;;;;;;5068405;28;20490;-65
2022/10/13 08:39:43;;;;;;;45.38;23.25;;;;;;;;;;5063948;28;20420;-63
2022/10/13 08:42:17;;;;;;;39.97;22.45;;;;;;;;;;5068620;28;20050;-64
2022/10/13 08:44:49;;;;;;;47.50;24.23;;;;;;;;;;5062581;28;20537;-65
2022/10/13 08:47:18;;;;;;;44.45;22.20;;;;;;;;;;5062992;28;20037;-66
2022/10/13 08:49:45;;;;;;;45.63;25.65;;;;;;;;;;5067821;28;20397;-65
2022/10/13 08:52:19;;;;;;;44.67;23.27;;;;;;;;;;5069862;28;20040;-65
2022/10/13 08:54:45;;;;;;;43.72;22.75;;;;;;;;;;5066994;28;20043;-63
2022/10/13 08:57:11;;;;;;;45.67;24.42;;;;;;;;;;5068846;28;20045;-62
2022/10/13 08:59:37;;;;;;;53.10;25.52;;;;;;;;;;5068614;28;20049;-63
2022/10/13 09:02:10;;;;;;;46.22;23.70;;;;;;;;;;5069348;28;20044;-64
2022/10/13 09:04:40;;;;;;;48.08;24.35;;;;;;;;;;5068347;28;20070;-63
2022/10/13 09:07:06;;;;;;;48.63;24.75;;;;;;;;;;5069431;28;20514;-63
2022/10/13 09:09:32;;;;;;;42.70;23.55;;;;;;;;;;5068288;28;20048;-63
2022/10/13 09:11:59;;;;;;;44.83;24.75;;;;;;;;;;5067921;28;20056;-63
2022/10/13 09:14:26;;;;;;;46.95;24.20;;;;;;;;;;5068234;28;20048;-64
2022/10/13 09:16:52;;;;;;;48.72;24.55;;;;;;;;;;5068773;28;20037;-65
2022/10/13 09:19:21;;;;;;;53.35;27.23;;;;;;;;;;5068617;28;20036;-66
2022/10/13 09:21:48;;;;;;;47.60;25.45;;;;;;;;;;5066022;28;20037;-65
2022/10/13 09:24:16;;;;;;;50.05;26.42;;;;;;;;;;5055012;28;20041;-63
2022/10/13 09:26:43;;;;;;;59.75;28.48;;;;;;;;;;5066003;28;20063;-63
2022/10/13 09:29:10;;;;;;;50.85;26.45;;;;;;;;;;5060472;28;20434;-64
2022/10/13 09:31:36;;;;;;;53.78;28.15;;;;;;;;;;5069617;28;20040;-64
2022/10/13 09:34:21;;;;;;;51.67;28.05;;;;;;;;;;5066394;28;20704;-65
2022/10/13 09:37:00;;;;;;;59.45;28.45;;;;;;;;;;5068065;28;20041;-66
2022/10/13 09:39:27;;;;;;;53.58;26.17;;;;;;;;;;5071308;28;20408;-66
2022/10/13 09:42:08;;;;;;;51.50;25.98;;;;;;;;;;5070369;28;20544;-65
2022/10/13 09:44:34;;;;;;;48.83;26.20;;;;;;;;;;5068080;28;20090;-63
2022/10/13 09:47:03;;;;;;;54.15;27.90;;;;;;;;;;5068978;28;20028;-63
2022/10/13 09:49:33;;;;;;;48.85;27.10;;;;;;;;;;5069684;28;20040;-65
2022/10/13 09:52:07;;;;;;;46.97;26.88;;;;;;;;;;5068666;28;20418;-63
2022/10/13 09:54:39;;;;;;;53.60;27.63;;;;;;;;;;5069676;28;20074;-64
2022/10/13 09:57:05;;;;;;;;;;;;;;;;;;5070112;28;20128;-65
2022/10/13 09:59:34;;;;;;;48.47;26.92;;;;;;;;;;5069611;28;20018;-67
2022/10/13 10:02:18;;;;;;;49.67;26.73;;;;;;;;;;5069303;28;20036;-66
2022/10/13 10:04:44;;;;;;;46.58;26.17;;;;;;;;;;5069792;28;20070;-65
2022/10/13 10:07:19;;;;;;;48.17;26.85;;;;;;;;;;5070804;28;20033;-65
2022/10/13 10:09:47;;;;;;;50.60;26.70;;;;;;;;;;5067685;28;20105;-65
2022/10/13 10:12:16;;;;;;;49.45;26.88;;;;;;;;;;5070544;28;20052;-65
2022/10/13 10:14:42;;;;;;;53.03;27.08;;;;;;;;;;5070748;28;20036;-64
2022/10/13 10:17:11;;;;;;;51.80;25.65;;;;;;;;;;5069265;28;20783;-63
2022/10/13 10:19:43;;;;;;;53.75;27.88;;;;;;;;;;5065991;28;20032;-63
2022/10/13 10:22:09;;;;;;;;;;;;;;;;;;5070880;28;20074;-64
2022/10/13 10:24:41;;;;;;;56.92;29.60;;;;;;;;;;5070408;28;20413;-62
2022/10/13 10:27:10;;;;;;;52.80;29.00;;;;;;;;;;5070806;28;20040;-62
2022/10/13 10:29:53;;;;;;;57.25;27.02;;;;;;;;;;5068923;28;20048;-63
2022/10/13 10:32:38;;;;;;;54.33;29.13;;;;;;;;;;5070302;28;20055;-65
2022/10/13 10:35:10;;;;;;;49.83;26.98;;;;;;;;;;5070321;28;20222;-65
2022/10/13 10:37:39;;;;;;;50.75;27.35;;;;;;;;;;5064518;28;20085;-65
2022/10/13 10:40:30;;;;;;;50.13;27.33;;;;;;;;;;5069570;28;20098;-65
2022/10/13 10:43:14;;;;;;;51.55;28.08;;;;;;;;;;5070835;28;20044;-65
2022/10/13 10:45:41;;;;;;;55.72;28.88;;;;;;;;;;5070690;28;20090;-65
2022/10/13 10:48:22;;;;;;;52.15;29.35;;;;;;;;;;5071080;28;20037;-65
2022/10/13 10:50:50;;;;;;;52.35;28.70;;;;;;;;;;5071219;28;20041;-65
2022/10/13 10:53:16;;;;;;;49.28;27.85;;;;;;;;;;5070865;28;20051;-65
2022/10/13 10:55:48;;;;;;;49.55;29.48;;;;;;;;;;5070998;28;20040;-65
2022/10/13 10:58:27;;;;;;;46.92;27.63;;;;;;;;;;5070232;28;20062;-65
2022/10/13 11:01:11;;;;;;;53.50;28.67;;;;;;;;;;5071107;28;20036;-65
2022/10/13 11:03:56;;;;;;;54.72;29.30;;;;;;;;;;5070715;28;20052;-65
2022/10/13 11:06:33;;;;;;;57.47;30.88;;;;;;;;;;5070216;28;20048;-65
2022/10/13 11:08:59;;;;;;;56.97;30.63;;;;;;;;;;5069471;28;20036;-65
2022/10/13 11:11:25;;;;;;;52.78;30.23;;;;;;;;;;5066080;28;20049;-64
2022/10/13 11:14:02;;;;;;;59.08;30.42;;;;;;;;;;5069539;28;20139;-66
2022/10/13 11:16:46;;;;;;;55.08;30.50;;;;;;;;;;5072757;28;20041;-64
2022/10/13 11:19:45;;;;;;;54.55;30.40;;;;;;;;;;5056006;28;20075;-63
2022/10/13 11:22:17;;;;;;;50.47;29.73;;;;;;;;;;5057309;28;20080;-63
2022/10/13 11:24:45;;;;;;;56.90;31.38;;;;;;;;;;5068399;28;20044;-65
2022/10/13 11:27:14;;;;;;;53.17;31.20;;;;;;;;;;5069034;28;20182;-66
2022/10/13 11:29:43;;;;;;;63.20;32.58;;;;;;;;;;5068148;28;20082;-66
2022/10/13 11:32:24;;;;;;;62.42;32.67;;;;;;;;;;5075086;28;20056;-65
2022/10/13 11:35:17;;;;;;;57.25;31.85;;;;;;;;;;5069097;28;20427;-65
2022/10/13 11:37:52;;;;;;;58.85;32.10;;;;;;;;;;5065513;28;20151;-65
2022/10/13 11:40:37;;;;;;;59.83;32.95;;;;;;;;;;5070093;28;20124;-65
2022/10/13 11:43:03;;;;;;;57.05;31.20;;;;;;;;;;5069467;28;20086;-65
2022/10/13 11:45:47;;;;;;;63.58;34.20;;;;;;;;;;5070045;28;20067;-66
2022/10/13 11:48:32;;;;;;;64.68;32.65;;;;;;;;;;5068144;28;20521;-62
2022/10/13 11:51:09;;;;;;;63.17;33.53;;;;;;;;;;5066258;28;20028;-63
2022/10/13 11:53:54;;;;;;;66.63;33.92;;;;;;;;;;5064781;28;20075;-63
2022/10/13 11:56:21;;;;;;;61.03;33.30;;;;;;;;;;5065126;28;20048;-64
2022/10/13 11:58:47;;;;;;;60.92;33.58;;;;;;;;;;5069042;28;20101;-63
2022/10/13 12:01:15;;;;;;;64.57;34.30;;;;;;;;;;5069492;28;20423;-63
2022/10/13 12:03:42;;;;;;;62.83;34.20;;;;;;;;;;5069538;28;20072;-63
2022/10/13 12:06:20;;;;;;;60.75;32.67;;;;;;;;;;5067525;28;20088;-65
2022/10/13 12:08:48;;;;;;;63.63;34.20;;;;;;;;;;5071514;28;20055;-65
2022/10/13 12:11:25;;;;;;;62.80;33.10;;;;;;;;;;5069605;28;20055;-65
2022/10/13 12:13:51;;;;;;;60.67;33.17;;;;;;;;;;5070955;28;20101;-64
2022/10/13 12:16:19;;;;;;;64.90;34.72;;;;;;;;;;5068886;28;20053;-65
2022/10/13 12:18:45;;;;;;;66.75;34.00;;;;;;;;;;5067812;28;20044;-64
2022/10/13 12:21:15;;;;;;;67.85;33.60;;;;;;;;;;5070037;28;20579;-64
2022/10/13 12:23:41;;;;;;;67.95;33.70;;;;;;;;;;5067527;28;20106;-65
2022/10/13 12:26:07;;;;;;;70.22;35.72;;;;;;;;;;5069296;28;20072;-64
2022/10/13 12:28:53;;;;;;;63.15;32.97;;;;;;;;;;5068006;28;20044;-64
2022/10/13 12:31:48;;;;;;;53.75;29.75;;;;;;;;;;5067658;28;20044;-64
2022/10/13 12:34:26;;;;;;;60.42;32.40;;;;;;;;;;5062004;28;20048;-64
2022/10/13 12:36:57;;;;;;;65.43;32.75;;;;;;;;;;5056717;28;20123;-64
2022/10/13 12:39:24;;;;;;;58.72;30.38;;;;;;;;;;5053827;28;20375;-63
2022/10/13 12:41:50;;;;;;;52.25;29.13;;;;;;;;;;5061505;28;20094;-64
2022/10/13 12:44:21;;;;;;;56.80;29.23;;;;;;;;;;5067869;28;20119;-64
2022/10/13 12:46:51;;;;;;;53.28;27.85;;;;;;;;;;5066554;28;20522;-65
2022/10/13 12:49:24;;;;;;;52.40;27.52;;;;;;;;;;5070456;28;20041;-64
2022/10/13 12:51:55;;;;;;;59.30;29.80;;;;;;;;;;5055653;28;20125;-64
2022/10/13 12:54:32;;;;;;;47.90;26.85;;;;;;;;;;5068951;28;20039;-65
2022/10/13 12:56:59;;;;;;;45.40;25.60;;;;;;;;;;5068485;28;20036;-64
2022/10/13 12:59:26;;;;;;;36.08;22.52;;;;;;;;;;5068582;28;20048;-64
2022/10/13 13:01:54;;;;;;;38.92;22.50;;;;;;;;;;5067511;28;20041;-64
2022/10/13 13:04:20;;;;;;;41.70;24.00;;;;;;;;;;5067106;28;20048;-65
2022/10/13 13:07:00;;;;;;;30.30;20.63;;;;;;;;;;5072524;28;20042;-64
2022/10/13 13:09:30;;;;;;;33.47;21.40;;;;;;;;;;5072065;28;20177;-65
2022/10/13 13:12:23;;;;;;;24.45;15.13;;;;;;;;;;5069857;28;20130;-64
2022/10/13 13:14:53;;;;;;;22.40;14.75;;;;;;;;;;5063242;28;20113;-65
2022/10/13 13:17:19;;;;;;;23.33;14.30;;;;;;;;;;5072211;28;20044;-65
2022/10/13 13:19:49;;;;;;;23.25;14.77;;;;;;;;;;5075808;28;20736;-65
2022/10/13 13:22:15;;;;;;;22.30;14.43;;;;;;;;;;5071229;28;20109;-66
2022/10/13 13:24:41;;;;;;;23.05;14.52;;;;;;;;;;5072296;28;20041;-65
2022/10/13 13:27:26;;;;;;;23.05;14.60;;;;;;;;;;5071971;28;20075;-65
2022/10/13 13:29:55;;;;;;;19.65;12.80;;;;;;;;;;5071462;28;20876;-65
2022/10/13 13:32:23;;;;;;;16.80;12.10;;;;;;;;;;5071064;28;20041;-64
2022/10/13 13:34:49;;;;;;;18.35;13.60;;;;;;;;;;5069170;28;20093;-64
2022/10/13 13:37:29;;;;;;;15.45;11.15;;;;;;;;;;5070658;28;20087;-64
2022/10/13 13:39:56;;;;;;;14.43;10.43;;;;;;;;;;5070457;28;20036;-64
2022/10/13 13:42:22;;;;;;;15.52;11.43;;;;;;;;;;5069542;28;20132;-64
2022/10/13 13:44:48;;;;;;;19.08;12.30;;;;;;;;;;5070992;28;20439;-64
2022/10/13 13:47:16;;;;;;;18.33;12.85;;;;;;;;;;5073367;28;20094;-65
2022/10/13 13:49:42;;;;;;;20.30;12.93;;;;;;;;;;5070515;28;20052;-64
2022/10/13 13:52:08;;;;;;;17.65;12.45;;;;;;;;;;5072916;28;20037;-64
2022/10/13 13:54:34;;;;;;;18.63;13.07;;;;;;;;;;5068132;28;20517;-64
2022/10/13 13:57:00;;;;;;;18.40;13.00;;;;;;;;;;5071808;28;20044;-64
2022/10/13 13:59:26;;;;;;;22.20;14.77;;;;;;;;;;5071143;28;20077;-63
2022/10/13 14:01:52;;;;;;;21.65;13.45;;;;;;;;;;5070077;28;20070;-64
2022/10/13 14:04:18;;;;;;;27.08;14.90;;;;;;;;;;5071667;28;20040;-66
2022/10/13 14:06:44;;;;;;;24.17;15.32;;;;;;;;;;5070125;28;20119;-64
2022/10/13 14:09:10;;;;;;;30.48;18.63;;;;;;;;;;5071676;28;20139;-65
2022/10/13 14:11:36;;;;;;;35.47;21.20;;;;;;;;;;5071124;28;20194;-65
2022/10/13 14:14:02;;;;;;;38.97;21.45;;;;;;;;;;5070436;28;20492;-65
2022/10/13 14:16:28;;;;;;;48.28;27.73;;;;;;;;;;5072676;28;20072;-65
2022/10/13 14:18:57;;;;;;;48.25;28.20;;;;;;;;;;5072092;28;20032;-65
2022/10/13 14:21:23;;;;;;;51.10;29.73;;;;;;;;;;5070338;28;20048;-64
2022/10/13 14:23:49;;;;;;;54.42;31.95;;;;;;;;;;5071131;28;20045;-65
2022/10/13 14:26:15;;;;;;;49.72;29.25;;;;;;;;;;5068990;28;20040;-64